Main page
METAR-TAF:

METAR-TAF

Airports :

Pskov Airport

Pskov, Russia

latitude: 57-47-06N, longitude: 028-23-54E, elevation: 47 m

Current weather observation

The report was made 42 minutes ago, at 15:30 UTC
Wind 12 kt from the West with gusts up to 21 kt, varying between West/Southwest and Northwest
Temperature 22°C
Humidity 50%
Pressure 1011 hPa
Visibility 10 km or more
no clouds below 1500 m and no cumulonimbus

METAR: ULOO 211530Z 28006G11MPS 240V320 CAVOK 22/11 Q1011 R19/090067 NOSIG RMK QFE754

Time: 19:12 (16:12 UTC)

Forecast

The report was made 2 hours and 21 minutes ago, at 13:51 UTC
Forecast valid from 21 at 15 UTC to 21 at 24 UTC
Wind 6 kt from the West with gusts up to 16 kt
Visibility 10 km or more
Scattered clouds at a height of 2000 ft

TAF: ULOO 211351Z 2115/2124 28003G08MPS 9999 SCT020

Weather observations and forecasts of more than 4000 airports (METAR and TAF reports).

The available stations are represented by yellow and red dots on the map.

Hover mouse over dot to see the name of the station.

Then click to see weather observations and forecasts.

To change the map : click on the green buttons with a black cross to zoom in, on the green button with a dash to zoom out, or on the green arrows for adjacent maps.


METAR-TAF: